createdAt,value
2018-01-19T00:00:32.126Z,-0.95
2018-01-19T00:02:59.685Z,-0.89
2018-01-19T00:05:27.265Z,-0.94
2018-01-19T00:07:54.800Z,-1.07
2018-01-19T00:10:22.375Z,-1.10
2018-01-19T00:12:50.124Z,-1.08
2018-01-19T00:15:17.681Z,-0.95
2018-01-19T00:17:45.288Z,-0.58
2018-01-19T00:20:12.836Z,-0.74
2018-01-19T00:22:42.925Z,-0.63
2018-01-19T00:25:10.473Z,-0.53
2018-01-19T00:27:38.021Z,-0.48
2018-01-19T00:30:05.576Z,-0.27
2018-01-19T00:32:33.143Z,0.04
2018-01-19T00:35:00.696Z,0.05
2018-01-19T00:37:28.224Z,-0.01
2018-01-19T00:39:55.777Z,0.01
2018-01-19T00:42:23.325Z,0.03
2018-01-19T00:44:50.908Z,-0.01
2018-01-19T00:47:18.464Z,-0.05
2018-01-19T00:49:46.069Z,-0.01
2018-01-19T00:52:13.595Z,-0.15
2018-01-19T00:54:41.136Z,-0.07
2018-01-19T00:57:08.728Z,-0.03
2018-01-19T00:59:36.256Z,-0.09
2018-01-19T01:02:03.840Z,0.01
2018-01-19T01:04:31.417Z,0.14
2018-01-19T01:06:58.961Z,0.10
2018-01-19T01:09:26.536Z,0.08
2018-01-19T01:11:54.069Z,-0.08
2018-01-19T01:14:21.668Z,-0.20
2018-01-19T01:16:49.225Z,-0.16
2018-01-19T01:19:16.778Z,-0.21
2018-01-19T01:21:44.380Z,-0.14
2018-01-19T01:24:11.956Z,-0.11
2018-01-19T01:26:39.515Z,-0.01
2018-01-19T01:29:07.089Z,-0.04
2018-01-19T01:31:34.668Z,0.09
2018-01-19T01:34:02.473Z,0.02
2018-01-19T01:36:30.069Z,0.02
2018-01-19T01:38:57.602Z,0.06
2018-01-19T01:41:25.172Z,0.19
2018-01-19T01:43:52.779Z,0.36
2018-01-19T01:46:20.323Z,0.36
2018-01-19T01:48:59.846Z,0.38
2018-01-19T01:51:27.392Z,0.38
2018-01-19T01:53:54.954Z,0.28
2018-01-19T01:56:22.505Z,0.23
2018-01-19T01:58:50.053Z,0.17
2018-01-19T02:01:17.609Z,0.26
2018-01-19T02:03:45.499Z,0.28
2018-01-19T02:06:13.125Z,0.24
2018-01-19T02:08:40.701Z,0.24
2018-01-19T02:11:08.253Z,0.31
2018-01-19T02:13:35.882Z,0.29
2018-01-19T02:16:03.433Z,0.33
2018-01-19T02:18:30.948Z,0.33
2018-01-19T02:20:58.546Z,0.32
2018-01-19T02:23:26.224Z,0.44
2018-01-19T02:25:53.780Z,0.39
2018-01-19T02:28:21.354Z,0.50
2018-01-19T02:30:48.900Z,0.47
2018-01-19T02:33:16.491Z,0.37
2018-01-19T02:35:44.056Z,0.43
2018-01-19T02:38:11.609Z,0.41
2018-01-19T02:40:39.294Z,0.41
2018-01-19T02:43:06.849Z,0.31
2018-01-19T02:45:34.461Z,0.35
2018-01-19T02:48:02.018Z,0.35
2018-01-19T02:50:29.548Z,0.35
2018-01-19T02:52:57.171Z,0.44
2018-01-19T02:55:24.701Z,0.58
2018-01-19T02:57:52.317Z,0.74
2018-01-19T03:00:19.876Z,0.68
2018-01-19T03:02:47.462Z,0.80
2018-01-19T03:05:15.002Z,0.61
2018-01-19T03:07:42.589Z,0.71
2018-01-19T03:10:10.108Z,0.71
2018-01-19T03:12:37.642Z,0.82
2018-01-19T03:15:05.221Z,0.77
2018-01-19T03:17:32.776Z,0.73
2018-01-19T03:20:00.329Z,0.72
2018-01-19T03:22:27.879Z,0.73
2018-01-19T03:24:55.436Z,0.82
2018-01-19T03:27:23.037Z,0.81
2018-01-19T03:29:50.560Z,0.81
2018-01-19T03:32:18.090Z,0.87
2018-01-19T03:34:45.674Z,0.81
2018-01-19T03:37:13.225Z,0.94
2018-01-19T03:39:40.815Z,0.89
2018-01-19T03:42:08.334Z,0.93
2018-01-19T03:44:35.886Z,0.94
2018-01-19T03:47:03.465Z,1.01
2018-01-19T03:49:31.072Z,1.15
2018-01-19T03:51:58.621Z,1.11
2018-01-19T03:54:26.146Z,0.93
2018-01-19T03:56:53.726Z,1.12
2018-01-19T03:59:21.261Z,1.15
2018-01-19T04:01:48.841Z,1.11
2018-01-19T04:04:16.361Z,1.21
2018-01-19T04:06:43.908Z,1.14
2018-01-19T04:09:11.610Z,1.03
2018-01-19T04:11:39.189Z,0.99
2018-01-19T04:14:06.742Z,1.07
2018-01-19T04:16:34.397Z,1.18
2018-01-19T04:19:01.916Z,1.00
2018-01-19T04:21:29.435Z,0.99
2018-01-19T04:23:57.034Z,0.98
2018-01-19T04:26:24.577Z,0.96
2018-01-19T04:28:52.135Z,0.98
2018-01-19T04:31:19.707Z,1.02
2018-01-19T04:33:47.451Z,1.07
2018-01-19T04:36:14.997Z,1.12
2018-01-19T04:38:42.609Z,1.20
2018-01-19T04:41:10.261Z,1.35
2018-01-19T04:43:37.820Z,1.19
2018-01-19T04:46:07.778Z,1.25
2018-01-19T04:48:35.348Z,1.38
2018-01-19T04:51:02.867Z,1.17
2018-01-19T04:53:30.444Z,1.34
2018-01-19T04:55:57.970Z,1.38
2018-01-19T04:58:25.519Z,1.31
2018-01-19T05:00:53.101Z,1.24
2018-01-19T05:03:20.706Z,1.35
2018-01-19T05:05:48.304Z,1.55
2018-01-19T05:08:15.870Z,1.36
2018-01-19T05:10:43.478Z,1.40
2018-01-19T05:13:11.033Z,1.15
2018-01-19T05:15:38.593Z,1.35
2018-01-19T05:18:06.145Z,1.60
2018-01-19T05:20:33.706Z,1.63
2018-01-19T05:23:01.300Z,1.45
2018-01-19T05:25:28.933Z,1.51
2018-01-19T05:27:56.480Z,1.59
2018-01-19T05:30:24.006Z,1.62
2018-01-19T05:32:51.632Z,1.46
2018-01-19T05:35:19.156Z,1.50
2018-01-19T05:37:46.698Z,1.40
2018-01-19T05:40:14.263Z,1.53
2018-01-19T05:42:41.793Z,1.40
2018-01-19T05:45:09.316Z,1.52
2018-01-19T05:47:36.894Z,1.62
2018-01-19T05:50:04.412Z,1.61
2018-01-19T05:52:31.974Z,1.82
2018-01-19T05:54:59.549Z,1.64
2018-01-19T05:57:27.138Z,1.63
2018-01-19T05:59:54.695Z,1.69
2018-01-19T06:02:22.245Z,1.62
2018-01-19T06:04:49.793Z,1.66
2018-01-19T06:07:17.345Z,1.60
2018-01-19T06:09:44.920Z,1.64
2018-01-19T06:12:12.510Z,1.61
2018-01-19T06:14:40.198Z,1.58
2018-01-19T06:17:07.825Z,1.67
2018-01-19T06:19:35.373Z,1.40
2018-01-19T06:22:02.913Z,1.46
2018-01-19T06:24:30.495Z,1.49
2018-01-19T06:26:58.052Z,1.39
2018-01-19T06:29:25.660Z,1.31
2018-01-19T06:31:53.849Z,1.36
2018-01-19T06:34:21.491Z,1.33
2018-01-19T06:36:49.089Z,1.36
2018-01-19T06:39:16.690Z,1.34
2018-01-19T06:41:44.245Z,1.34
2018-01-19T06:44:11.869Z,1.44
2018-01-19T06:46:39.433Z,1.27
2018-01-19T06:49:06.981Z,1.31
2018-01-19T06:51:34.529Z,1.43
2018-01-19T06:54:02.100Z,1.31
2018-01-19T06:56:29.636Z,1.45
2018-01-19T06:58:57.161Z,1.53
2018-01-19T07:01:24.841Z,1.51
2018-01-19T07:03:52.360Z,1.53
2018-01-19T07:06:19.880Z,1.62
2018-01-19T07:08:47.460Z,1.70
2018-01-19T07:11:15.009Z,1.45
2018-01-19T07:13:42.536Z,1.44
2018-01-19T07:16:10.118Z,1.38
2018-01-19T07:18:37.664Z,1.48
2018-01-19T07:21:05.218Z,1.53
2018-01-19T07:23:32.769Z,1.71
2018-01-19T07:26:00.345Z,1.61
2018-01-19T07:28:27.906Z,1.67
2018-01-19T07:30:55.455Z,1.81
2018-01-19T07:33:22.990Z,1.82
2018-01-19T07:35:50.548Z,1.71
2018-01-19T07:38:18.097Z,1.71
2018-01-19T07:40:45.667Z,1.71
2018-01-19T07:43:13.230Z,1.74
2018-01-19T07:45:40.865Z,1.78
2018-01-19T07:48:08.461Z,1.81
2018-01-19T07:50:36.022Z,1.66
2018-01-19T07:53:03.644Z,1.84
2018-01-19T07:55:31.194Z,1.77
2018-01-19T07:57:58.779Z,1.59
2018-01-19T08:00:26.442Z,1.72
2018-01-19T08:02:53.974Z,1.79
2018-01-19T08:05:21.559Z,1.71
2018-01-19T08:07:49.138Z,1.84
2018-01-19T08:10:16.689Z,1.99
2018-01-19T08:12:44.274Z,1.80
2018-01-19T08:15:12.097Z,2.02
2018-01-19T08:17:39.874Z,2.22
2018-01-19T08:20:08.304Z,1.90
2018-01-19T08:22:35.913Z,1.87
2018-01-19T08:25:03.488Z,2.10
2018-01-19T08:27:31.050Z,1.91
2018-01-19T08:29:58.661Z,1.90
2018-01-19T08:32:26.439Z,1.94
2018-01-19T08:34:54.010Z,1.79
2018-01-19T08:37:21.609Z,1.72
2018-01-19T08:39:49.160Z,1.65
2018-01-19T08:42:16.738Z,1.68
2018-01-19T08:44:44.324Z,1.83
2018-01-19T08:47:11.941Z,1.72
2018-01-19T08:49:39.526Z,1.77
2018-01-19T08:52:07.089Z,1.62
2018-01-19T08:54:34.684Z,1.62
2018-01-19T08:57:02.293Z,1.62
2018-01-19T08:59:29.811Z,1.62
2018-01-19T09:01:57.369Z,1.65
2018-01-19T09:04:24.940Z,1.80
2018-01-19T09:06:52.520Z,1.79
2018-01-19T09:09:20.040Z,1.72
2018-01-19T09:11:47.613Z,2.09
2018-01-19T09:14:15.131Z,2.00
2018-01-19T09:16:42.647Z,1.99
2018-01-19T09:19:10.196Z,2.13
2018-01-19T09:21:37.716Z,2.60
2018-01-19T09:24:05.308Z,2.09
2018-01-19T09:26:32.866Z,2.31
2018-01-19T09:29:00.841Z,2.19
2018-01-19T09:31:28.499Z,2.02
2018-01-19T09:33:56.066Z,2.02
2018-01-19T09:36:23.632Z,2.03
2018-01-19T09:38:51.190Z,2.12
2018-01-19T09:41:18.777Z,2.20
2018-01-19T09:43:47.486Z,2.24
2018-01-19T09:46:15.071Z,2.56
2018-01-19T09:48:42.649Z,2.25
2018-01-19T09:51:10.277Z,2.26
2018-01-19T09:53:37.804Z,2.44
2018-01-19T09:56:05.334Z,2.49
2018-01-19T09:58:32.949Z,2.61
2018-01-19T10:01:00.598Z,2.52
2018-01-19T10:03:28.123Z,2.46
2018-01-19T10:05:55.708Z,2.44
2018-01-19T10:08:23.312Z,2.38
2018-01-19T10:10:50.876Z,2.46
2018-01-19T10:13:18.456Z,2.38
2018-01-19T10:15:46.005Z,2.55
2018-01-19T10:18:13.599Z,2.55
2018-01-19T10:20:41.161Z,2.64
2018-01-19T10:23:08.707Z,2.91
2018-01-19T10:25:36.231Z,2.75
2018-01-19T10:28:03.816Z,3.00
2018-01-19T10:30:31.474Z,3.29
2018-01-19T10:32:59.015Z,3.20
2018-01-19T10:35:26.636Z,3.17
2018-01-19T10:37:54.204Z,3.32
2018-01-19T10:40:21.728Z,3.37
2018-01-19T10:42:49.357Z,3.43
2018-01-19T10:45:16.911Z,3.45
2018-01-19T10:47:44.444Z,3.66
2018-01-19T10:50:12.053Z,3.54
2018-01-19T10:52:39.614Z,3.51
2018-01-19T10:55:07.205Z,3.91
2018-01-19T10:57:34.772Z,3.59
2018-01-19T11:00:02.334Z,3.71
2018-01-19T11:02:29.913Z,4.18
2018-01-19T11:04:57.469Z,3.95
2018-01-19T11:07:25.021Z,3.69
2018-01-19T11:09:52.694Z,3.74
2018-01-19T11:12:20.291Z,4.06
2018-01-19T11:14:47.842Z,3.68
2018-01-19T11:17:15.356Z,3.87
2018-01-19T11:19:42.964Z,3.91
2018-01-19T11:22:10.531Z,3.70
2018-01-19T11:24:38.082Z,3.64
2018-01-19T11:27:05.686Z,3.58
2018-01-19T11:29:33.246Z,3.74
2018-01-19T11:32:00.776Z,4.18
2018-01-19T11:34:28.323Z,4.24
2018-01-19T11:36:55.920Z,4.19
2018-01-19T11:39:23.506Z,4.33
2018-01-19T11:41:51.076Z,4.38
2018-01-19T11:44:18.598Z,4.57
2018-01-19T11:46:46.113Z,4.25
2018-01-19T11:49:13.683Z,4.46
2018-01-19T11:51:41.186Z,4.44
2018-01-19T11:54:08.732Z,4.46
2018-01-19T11:56:36.334Z,4.38
2018-01-19T11:59:03.993Z,4.45
2018-01-19T12:01:31.568Z,4.69
2018-01-19T12:03:59.138Z,4.95
2018-01-19T12:06:26.829Z,5.43
2018-01-19T12:08:54.365Z,4.71
2018-01-19T12:11:21.911Z,4.40
2018-01-19T12:13:49.517Z,4.32
2018-01-19T12:16:17.049Z,4.36
2018-01-19T12:18:44.555Z,4.19
2018-01-19T12:21:12.138Z,4.45
2018-01-19T12:23:39.651Z,4.34
2018-01-19T12:26:07.197Z,4.36
2018-01-19T12:28:34.786Z,4.28
2018-01-19T12:31:02.338Z,4.51
2018-01-19T12:33:29.880Z,4.48
2018-01-19T12:35:57.495Z,4.48
2018-01-19T12:38:25.041Z,4.56
2018-01-19T12:40:52.569Z,4.16
2018-01-19T12:43:20.189Z,4.31
2018-01-19T12:45:47.725Z,4.31
2018-01-19T12:48:15.282Z,4.43
2018-01-19T12:50:42.832Z,4.67
2018-01-19T12:53:10.403Z,4.65
2018-01-19T12:55:37.915Z,4.64
2018-01-19T12:58:05.485Z,4.75
2018-01-19T13:00:33.028Z,4.81
2018-01-19T13:03:00.621Z,4.69
2018-01-19T13:05:28.148Z,4.69
2018-01-19T13:07:55.675Z,4.71
2018-01-19T13:10:23.258Z,4.99
2018-01-19T13:12:50.810Z,4.86
2018-01-19T13:15:18.414Z,4.86
2018-01-19T13:17:45.933Z,5.11
2018-01-19T13:20:13.474Z,5.14
2018-01-19T13:22:41.049Z,4.75
2018-01-19T13:25:08.606Z,4.73
2018-01-19T13:27:36.123Z,4.68
2018-01-19T13:30:03.797Z,4.43
2018-01-19T13:32:31.350Z,4.16
2018-01-19T13:34:58.956Z,4.28
2018-01-19T13:37:26.518Z,4.03
2018-01-19T13:39:54.044Z,4.13
2018-01-19T13:42:21.584Z,4.37
2018-01-19T13:44:49.101Z,4.70
2018-01-19T13:47:16.673Z,4.54
2018-01-19T13:49:44.179Z,4.72
2018-01-19T13:52:11.698Z,4.65
2018-01-19T13:54:39.246Z,4.61
2018-01-19T13:57:06.809Z,4.31
2018-01-19T13:59:34.429Z,4.29
2018-01-19T14:02:02.001Z,4.17
2018-01-19T14:04:29.557Z,4.10
2018-01-19T14:06:57.135Z,4.06
2018-01-19T14:09:24.689Z,4.24
2018-01-19T14:11:52.258Z,4.14
2018-01-19T14:14:19.833Z,4.41
2018-01-19T14:16:47.376Z,4.19
2018-01-19T14:19:14.989Z,4.17
2018-01-19T14:21:42.558Z,4.11
2018-01-19T14:24:10.073Z,3.86
2018-01-19T14:26:37.644Z,3.87
2018-01-19T14:29:05.200Z,4.07
2018-01-19T14:31:32.748Z,3.97
2018-01-19T14:34:00.260Z,4.13
2018-01-19T14:36:27.838Z,4.12
2018-01-19T14:38:55.381Z,3.75
2018-01-19T14:41:22.993Z,4.00
2018-01-19T14:43:51.554Z,4.14
2018-01-19T14:46:19.105Z,4.10
2018-01-19T14:48:46.701Z,3.97
2018-01-19T14:51:14.309Z,4.36
2018-01-19T14:53:41.849Z,4.16
2018-01-19T14:56:09.458Z,4.30
2018-01-19T14:58:37.094Z,4.38
2018-01-19T15:01:04.637Z,4.40
2018-01-19T15:03:32.184Z,4.13
2018-01-19T15:05:59.782Z,4.20
2018-01-19T15:08:27.334Z,4.42
2018-01-19T15:10:54.880Z,4.59
2018-01-19T15:13:22.457Z,4.33
2018-01-19T15:15:50.011Z,4.48
2018-01-19T15:18:17.570Z,4.36
2018-01-19T15:20:45.110Z,4.20
2018-01-19T15:23:12.637Z,4.19
2018-01-19T15:25:40.269Z,4.06
2018-01-19T15:28:07.798Z,4.14
2018-01-19T15:30:35.341Z,4.17
2018-01-19T15:33:02.883Z,3.97
2018-01-19T15:35:30.439Z,4.04
2018-01-19T15:37:57.989Z,3.96
2018-01-19T15:40:25.559Z,3.57
2018-01-19T15:42:53.160Z,3.57
2018-01-19T15:45:20.774Z,3.51
2018-01-19T15:47:48.305Z,3.46
2018-01-19T15:50:15.918Z,3.34
2018-01-19T15:52:43.460Z,3.32
2018-01-19T15:55:10.990Z,3.46
2018-01-19T15:57:38.599Z,3.39
2018-01-19T16:00:06.190Z,3.40
2018-01-19T16:02:33.742Z,3.46
2018-01-19T16:05:01.409Z,3.41
2018-01-19T16:07:28.924Z,3.50
2018-01-19T16:09:56.477Z,3.25
2018-01-19T16:12:24.076Z,3.26
2018-01-19T16:14:51.621Z,3.27
2018-01-19T16:17:19.201Z,3.21
2018-01-19T16:19:46.786Z,3.11
2018-01-19T16:22:14.303Z,3.06
2018-01-19T16:24:41.997Z,2.97
2018-01-19T16:27:09.532Z,2.90
2018-01-19T16:29:37.077Z,2.86
2018-01-19T16:32:04.678Z,2.64
2018-01-19T16:34:32.229Z,2.61
2018-01-19T16:36:59.865Z,2.57
2018-01-19T16:39:27.447Z,2.48
2018-01-19T16:41:55.045Z,2.39
2018-01-19T16:44:22.588Z,2.28
2018-01-19T16:46:50.113Z,2.19
2018-01-19T16:49:17.712Z,2.27
2018-01-19T16:51:45.260Z,2.24
2018-01-19T16:54:12.822Z,2.11
2018-01-19T16:56:40.401Z,2.16
2018-01-19T16:59:07.949Z,2.16
2018-01-19T17:01:35.532Z,2.44
2018-01-19T17:04:03.138Z,2.47
2018-01-19T17:06:30.660Z,2.56
2018-01-19T17:08:58.167Z,2.62
2018-01-19T17:11:25.749Z,2.59
2018-01-19T17:13:53.334Z,2.39
2018-01-19T17:16:21.010Z,2.39
2018-01-19T17:18:48.617Z,2.30
2018-01-19T17:21:16.188Z,2.21
2018-01-19T17:23:43.718Z,2.19
2018-01-19T17:26:11.329Z,2.29
2018-01-19T17:28:38.876Z,2.32
2018-01-19T17:31:06.401Z,2.18
2018-01-19T17:33:33.992Z,2.22
2018-01-19T17:36:01.582Z,2.30
2018-01-19T17:38:29.114Z,2.25
2018-01-19T17:40:56.706Z,2.20
2018-01-19T17:43:24.325Z,2.13
2018-01-19T17:45:52.007Z,2.12
2018-01-19T17:48:19.581Z,2.11
2018-01-19T17:50:47.095Z,2.07
2018-01-19T17:53:14.692Z,2.01
2018-01-19T17:55:42.305Z,1.97
2018-01-19T17:58:09.867Z,1.89
2018-01-19T18:00:37.445Z,1.81
2018-01-19T18:03:04.969Z,1.61
2018-01-19T18:05:32.565Z,1.70
2018-01-19T18:08:00.097Z,1.56
2018-01-19T18:10:27.629Z,1.50
2018-01-19T18:12:55.185Z,1.52
2018-01-19T18:15:22.759Z,1.41
2018-01-19T18:17:50.344Z,1.32
2018-01-19T18:20:17.898Z,1.28
2018-01-19T18:22:45.479Z,1.25
2018-01-19T18:25:13.042Z,1.39
2018-01-19T18:27:40.606Z,1.22
2018-01-19T18:30:08.192Z,1.07
2018-01-19T18:32:35.725Z,1.08
2018-01-19T18:35:03.299Z,1.18
2018-01-19T18:37:30.849Z,1.19
2018-01-19T18:39:58.385Z,1.32
2018-01-19T18:42:25.960Z,1.11
2018-01-19T18:44:53.489Z,1.22
2018-01-19T18:47:21.041Z,1.22
2018-01-19T18:49:48.629Z,1.25
2018-01-19T18:52:16.202Z,1.15
2018-01-19T18:54:43.752Z,1.10
2018-01-19T18:57:11.299Z,1.25
2018-01-19T18:59:38.862Z,1.11
2018-01-19T19:02:06.493Z,0.99
2018-01-19T19:04:34.022Z,1.03
2018-01-19T19:07:01.544Z,1.04
2018-01-19T19:09:29.158Z,1.09
2018-01-19T19:11:56.716Z,1.15
2018-01-19T19:14:24.266Z,1.25
2018-01-19T19:16:51.888Z,1.24
2018-01-19T19:19:19.454Z,1.28
2018-01-19T19:21:47.002Z,1.33
2018-01-19T19:24:14.585Z,1.36
2018-01-19T19:26:42.163Z,1.38
2018-01-19T19:29:09.694Z,1.39
2018-01-19T19:31:37.349Z,1.26
2018-01-19T19:34:04.961Z,1.22
2018-01-19T19:36:32.530Z,0.98
2018-01-19T19:39:00.055Z,0.97
2018-01-19T19:41:27.644Z,1.05
2018-01-19T19:43:55.312Z,1.07
2018-01-19T19:46:22.926Z,1.14
2018-01-19T19:48:50.493Z,0.81
2018-01-19T19:51:18.093Z,0.93
2018-01-19T19:53:45.654Z,1.05
2018-01-19T19:56:13.383Z,1.00
2018-01-19T19:58:41.164Z,0.98
2018-01-19T20:01:08.808Z,1.05
2018-01-19T20:03:36.385Z,1.04
2018-01-19T20:06:03.977Z,1.15
2018-01-19T20:08:31.765Z,1.04
2018-01-19T20:10:59.334Z,1.04
2018-01-19T20:13:27.012Z,1.13
2018-01-19T20:15:54.601Z,1.07
2018-01-19T20:18:22.227Z,1.24
2018-01-19T20:20:49.790Z,1.14
2018-01-19T20:23:17.358Z,0.99
2018-01-19T20:25:45.184Z,0.91
2018-01-19T20:28:12.938Z,1.02
2018-01-19T20:30:40.467Z,0.95
2018-01-19T20:33:08.025Z,0.96
2018-01-19T20:35:35.621Z,0.91
2018-01-19T20:38:03.173Z,0.84
2018-01-19T20:40:30.734Z,0.84
2018-01-19T20:42:58.453Z,0.95
2018-01-19T20:45:26.022Z,0.81
2018-01-19T20:47:53.674Z,0.83
2018-01-19T20:50:21.243Z,0.78
2018-01-19T20:52:48.900Z,0.72
2018-01-19T20:55:16.481Z,0.71
2018-01-19T20:57:44.143Z,0.59
2018-01-19T21:00:11.790Z,0.58
2018-01-19T21:02:39.405Z,0.69
2018-01-19T21:05:06.973Z,0.59
2018-01-19T21:07:34.763Z,0.70
2018-01-19T21:10:02.336Z,0.54
2018-01-19T21:12:29.880Z,0.24
2018-01-19T21:14:57.445Z,0.25
2018-01-19T21:17:25.134Z,0.25
2018-01-19T21:19:52.872Z,0.10
2018-01-19T21:22:20.413Z,-0.02
2018-01-19T21:24:48.125Z,0.10
2018-01-19T21:27:15.668Z,0.27
2018-01-19T21:29:43.249Z,0.53
2018-01-19T21:32:11.112Z,0.66
2018-01-19T21:34:38.665Z,0.81
2018-01-19T21:37:06.266Z,0.81
2018-01-19T21:39:33.831Z,0.74
2018-01-19T21:42:01.681Z,0.79
2018-01-19T21:44:29.265Z,0.71
2018-01-19T21:46:56.821Z,0.70
2018-01-19T21:49:24.515Z,0.72
2018-01-19T21:51:52.063Z,0.67
2018-01-19T21:54:19.607Z,0.61
2018-01-19T21:56:47.229Z,0.66
2018-01-19T21:59:14.787Z,0.62
2018-01-19T22:01:42.349Z,0.70
2018-01-19T22:04:10.003Z,0.70
2018-01-19T22:06:37.549Z,0.72
2018-01-19T22:09:05.120Z,0.69
2018-01-19T22:11:32.668Z,0.81
2018-01-19T22:14:00.254Z,0.73
2018-01-19T22:16:28.028Z,0.73
2018-01-19T22:18:55.555Z,0.61
2018-01-19T22:21:23.130Z,0.62
2018-01-19T22:23:50.744Z,0.50
2018-01-19T22:26:18.385Z,0.45
2018-01-19T22:28:45.964Z,0.44
2018-01-19T22:31:13.663Z,0.41
2018-01-19T22:33:41.657Z,0.38
2018-01-19T22:36:09.314Z,0.31
2018-01-19T22:38:36.908Z,0.02
2018-01-19T22:41:04.437Z,-0.03
2018-01-19T22:43:32.028Z,-0.06
2018-01-19T22:45:59.556Z,0.16
2018-01-19T22:48:27.141Z,0.15
2018-01-19T22:50:54.852Z,0.30
2018-01-19T22:53:22.418Z,0.05
2018-01-19T22:55:50.215Z,0.19
2018-01-19T22:58:17.728Z,0.02
2018-01-19T23:00:45.375Z,0.26
2018-01-19T23:03:12.929Z,0.25
2018-01-19T23:05:40.452Z,0.26
2018-01-19T23:08:08.022Z,0.14
2018-01-19T23:10:35.671Z,-0.02
2018-01-19T23:13:03.402Z,0.07
2018-01-19T23:15:31.907Z,0.10
2018-01-19T23:17:59.464Z,0.30
2018-01-19T23:20:26.992Z,0.28
2018-01-19T23:22:54.565Z,0.35
2018-01-19T23:25:22.101Z,0.35
2018-01-19T23:27:49.766Z,0.31
2018-01-19T23:30:17.321Z,0.24
2018-01-19T23:32:44.897Z,0.36
2018-01-19T23:35:12.464Z,0.44
2018-01-19T23:37:40.060Z,0.32
2018-01-19T23:40:07.622Z,0.65
2018-01-19T23:42:35.189Z,0.73
2018-01-19T23:45:02.740Z,0.76
2018-01-19T23:47:30.297Z,0.86
2018-01-19T23:49:57.903Z,0.73
2018-01-19T23:52:25.469Z,0.76
2018-01-19T23:54:53.021Z,0.75
2018-01-19T23:57:20.637Z,1.05
2018-01-19T23:59:48.181Z,1.25
